PWSweather.com
Personal Weather Stations
Station Observations
WA6MVG
Nw Lake Tapps, Auburn, WA 98092

Nw Lake TappsAuburn, WA 98092

Lat: 47.250153, Lon: -122.195483

Elevation: 500

Station Type: Oregon Scientific WMR100a

http://www.wa6mvg.com/wxindex.php

Latest ConditionsUpdated 7:00:00 AM PDT Monday, Jun 17, 2019
Currently Today's Max Today's Min Today's Average
Temperature 55.2°F12.9°C 59.0°F15.0°C 53.2°F11.8°C 55.0°F12.8°C
Dew Point 52.3°F11.3°C 54.2°F12.3°C 50.6°F10.3°C 51.9°F11.1°C
Winds Calm Calm Calm -Calm - - Calm Calm
Wind Gusts -- -- - -
Humidity 90% 93% 84% 89%
Pressure 30.12 in1020.0 mb 30.12 in1020.0 mb 30.04 in1017.3 mb -
Hour Temp Dew Point Humidity Winds Wind Gusts Pressure Precip Precip Rate Daily Precip Total
07:00 AM 55.2°F12.9°C 52.3°F11.3°C 90% Calm Calm -- 30.12 in1020.0 mb - 0.00 in0.0 mm 0.00 in0.0 mm
06:45 AM 55.0°F12.8°C 52.2°F11.2°C 90% Calm Calm -- 30.12 in1020.0 mb - 0.00 in0.0 mm 0.00 in0.0 mm
06:30 AM 54.9°F12.7°C 52.0°F11.1°C 90% Calm Calm -- 30.11 in1019.6 mb - 0.00 in0.0 mm 0.00 in0.0 mm
06:15 AM 54.7°F12.6°C 51.9°F11.1°C 90% Calm Calm -- 30.11 in1019.6 mb - 0.00 in0.0 mm 0.00 in0.0 mm
06:00 AM 54.7°F12.6°C 52.1°F11.2°C 91% Calm Calm -- 30.11 in1019.6 mb - 0.00 in0.0 mm 0.00 in0.0 mm
05:45 AM 54.7°F12.6°C 52.1°F11.2°C 91% Calm Calm -- 30.11 in1019.6 mb - 0.00 in0.0 mm 0.00 in0.0 mm
05:30 AM 54.3°F12.4°C 52.0°F11.1°C 92% Calm Calm -- 30.10 in1019.3 mb - 0.00 in0.0 mm 0.00 in0.0 mm
05:15 AM 54.1°F12.3°C 51.9°F11.1°C 92% Calm Calm -- 30.10 in1019.3 mb - 0.00 in0.0 mm 0.00 in0.0 mm
05:00 AM 54.0°F12.2°C 51.7°F10.9°C 92% Calm Calm -- 30.10 in1019.3 mb - 0.00 in0.0 mm 0.00 in0.0 mm
04:45 AM 53.7°F12.1°C 51.8°F11.0°C 93% Calm Calm -- 30.10 in1019.3 mb - 0.00 in0.0 mm 0.00 in0.0 mm
04:30 AM 53.2°F11.8°C 51.0°F10.6°C 92% Calm Calm -- 30.09 in1019.0 mb - 0.00 in0.0 mm 0.00 in0.0 mm
04:15 AM 53.2°F11.8°C 51.0°F10.6°C 92% Calm Calm -- 30.09 in1019.0 mb - 0.00 in0.0 mm 0.00 in0.0 mm
04:00 AM 53.2°F11.8°C 51.0°F10.6°C 92% Calm Calm -- 30.09 in1019.0 mb - 0.00 in0.0 mm 0.00 in0.0 mm
03:45 AM 53.2°F11.8°C 50.7°F10.4°C 91% Calm Calm -- 30.09 in1019.0 mb - 0.00 in0.0 mm 0.00 in0.0 mm
03:30 AM 53.4°F11.9°C 50.6°F10.3°C 90% Calm Calm -- 30.09 in1019.0 mb - 0.00 in0.0 mm 0.00 in0.0 mm
03:15 AM 53.9°F12.2°C 51.0°F10.6°C 90% Calm Calm -- 30.09 in1019.0 mb - 0.00 in0.0 mm 0.00 in0.0 mm
03:00 AM 54.1°F12.3°C 51.3°F10.7°C 90% Calm Calm -- 30.08 in1018.6 mb - 0.00 in0.0 mm 0.00 in0.0 mm
02:45 AM 54.3°F12.4°C 51.4°F10.8°C 90% Calm Calm -- 30.08 in1018.6 mb - 0.00 in0.0 mm 0.00 in0.0 mm
02:30 AM 54.7°F12.6°C 51.5°F10.8°C 89% Calm Calm -- 30.07 in1018.3 mb - 0.00 in0.0 mm 0.00 in0.0 mm
02:15 AM 54.9°F12.7°C 51.4°F10.8°C 88% Calm Calm -- 30.07 in1018.3 mb - 0.00 in0.0 mm 0.00 in0.0 mm
02:00 AM 55.2°F12.9°C 51.7°F10.9°C 88% Calm Calm -- 30.07 in1018.3 mb - 0.00 in0.0 mm 0.00 in0.0 mm
01:45 AM 55.6°F13.1°C 52.1°F11.2°C 88% Calm Calm -- 30.06 in1017.9 mb - 0.00 in0.0 mm 0.00 in0.0 mm
01:30 AM 55.9°F13.3°C 52.1°F11.2°C 87% Calm Calm -- 30.06 in1017.9 mb - 0.00 in0.0 mm 0.00 in0.0 mm
01:15 AM 56.5°F13.6°C 52.3°F11.3°C 86% Calm Calm -- 30.06 in1017.9 mb - 0.00 in0.0 mm 0.00 in0.0 mm
01:00 AM 56.9°F13.8°C 52.8°F11.6°C 86% Calm Calm -- 30.06 in1017.9 mb - 0.00 in0.0 mm 0.00 in0.0 mm
12:45 AM 57.4°F14.1°C 52.9°F11.6°C 85% Calm Calm -- 30.05 in1017.6 mb - 0.00 in0.0 mm 0.00 in0.0 mm
12:30 AM 57.9°F14.4°C 53.4°F11.9°C 85% Calm Calm -- 30.05 in1017.6 mb - 0.00 in0.0 mm 0.00 in0.0 mm
12:15 AM 58.5°F14.7°C 53.6°F12.0°C 84% Calm Calm -- 30.05 in1017.6 mb - 0.00 in0.0 mm 0.00 in0.0 mm
12:00 AM 59.0°F15.0°C 54.2°F12.3°C 84% Calm Calm -- 30.04 in1017.3 mb - 0.00 in0.0 mm 0.00 in0.0 mm